Maseru, Lesotho
Current Conditions -  °F | °C
As of 10:00 PM on Sunday 23 Nov 2014 (Local Time) from FABL Reporting Station
Light Rain Light Rain  
Wind Chill: 57°   Ceiling: NA
Heat Index: 57°   Visibility: 6mi
Dew Point: 54°   Wind: 8mph
Humidity: 88%   Direction: 350°N
Pressure: 30.18"   Gusts: NA
Location:  29.31°S, 27.49°E
Report Text: FABL 232000Z AUTO 35007KT 9999 -RA ////// 14/12 Q1022
Loading
Personal Weather Stations






























Interactive Weather Map New forecast layout! Learn more

10-Day Weather Forecast

Advertisements
Track Severe Weather on mobile